Time;durP1;ratioP1;P1;durP2;ratioP2;P2;SDS_P1;SDS_P2;PMS_P1;PMS_P2;Temp;Humidity;BMP_temperature;BMP_pressure;BME280_temperature;BME280_humidity;BME280_pressure;Samples;Min_cycle;Max_cycle;Signal;HPM_P1;HPM_P2
2023/07/12 00:01:00;;;;;;;10.70;2.85;;;31.50;41.30;;;;;;6120620;29;20491;-73
2023/07/12 00:04:02;;;;;;;8.40;2.60;;;31.40;41.50;;;;;;6119128;29;20110;-74
2023/07/12 00:07:03;;;;;;;12.68;2.72;;;31.30;41.60;;;;;;6103611;29;20068;-75
2023/07/12 00:10:15;;;;;;;16.77;2.95;;;31.20;41.80;;;;;;6119076;29;20455;-74
2023/07/12 00:13:18;;;;;;;17.60;3.80;;;31.00;42.20;;;;;;6119020;29;20062;-74
2023/07/12 00:16:29;;;;;;;10.52;3.22;;;30.90;42.40;;;;;;6119032;29;20674;-73
2023/07/12 00:19:30;;;;;;;24.45;4.20;;;30.80;42.70;;;;;;6119036;29;20385;-73
2023/07/12 00:22:31;;;;;;;15.10;4.50;;;30.80;42.80;;;;;;6118346;29;20031;-74
2023/07/12 00:25:33;;;;;;;16.80;4.45;;;30.70;42.90;;;;;;6120135;29;20453;-75
2023/07/12 00:28:35;;;;;;;18.95;4.63;;;30.80;42.80;;;;;;6118664;29;20036;-74
2023/07/12 00:31:36;;;;;;;17.80;5.00;;;30.90;42.90;;;;;;6120495;29;20668;-76
2023/07/12 00:34:37;;;;;;;23.50;5.68;;;31.00;42.70;;;;;;6119178;29;20562;-73
2023/07/12 00:37:39;;;;;;;17.75;5.75;;;31.00;42.50;;;;;;6143025;29;20445;-75
2023/07/12 00:40:56;;;;;;;17.15;5.78;;;30.90;42.60;;;;;;6142407;29;20065;-74
2023/07/12 00:44:08;;;;;;;17.50;6.30;;;30.80;42.80;;;;;;6102868;29;20047;-74
2023/07/12 00:47:13;;;;;;;21.73;6.28;;;30.70;43.20;;;;;;6110596;29;20097;-74
2023/07/12 00:50:18;;;;;;;30.42;7.25;;;30.70;43.90;;;;;;6094998;29;20426;-73
2023/07/12 00:53:23;;;;;;;20.42;7.60;;;30.70;43.40;;;;;;6109410;29;20024;-74
2023/07/12 00:56:26;;;;;;;22.25;8.38;;;30.50;43.60;;;;;;6118786;29;20032;-73
2023/07/12 00:59:30;;;;;;;22.83;8.00;;;30.40;43.80;;;;;;6118966;29;20387;-75
2023/07/12 01:02:31;;;;;;;15.38;6.90;;;30.30;44.20;;;;;;6118718;29;20043;-75
2023/07/12 01:05:32;;;;;;;17.23;6.97;;;30.20;44.30;;;;;;6102341;29;20132;-75
2023/07/12 01:08:34;;;;;;;20.50;7.03;;;30.20;44.40;;;;;;6102765;29;20119;-75
2023/07/12 01:11:34;;;;;;;25.48;8.18;;;30.20;44.50;;;;;;6106407;29;20416;-73
2023/07/12 01:14:39;;;;;;;17.45;6.80;;;30.10;44.60;;;;;;6123730;29;20467;-74
2023/07/12 01:17:43;;;;;;;24.10;6.63;;;30.00;44.80;;;;;;6125086;29;20747;-74
2023/07/12 01:20:45;;;;;;;19.60;5.72;;;30.10;44.90;;;;;;6123120;29;20036;-74
2023/07/12 01:23:46;;;;;;;22.27;5.78;;;30.30;44.00;;;;;;6106775;29;20138;-74
2023/07/12 01:26:56;;;;;;;17.45;5.05;;;30.30;44.50;;;;;;6122512;29;20059;-75
2023/07/12 01:29:57;;;;;;;18.77;5.57;;;30.40;44.40;;;;;;6115841;29;20051;-75
2023/07/12 01:32:58;;;;;;;14.32;4.68;;;30.30;44.40;;;;;;6145924;28;20114;-74
2023/07/12 01:35:59;;;;;;;13.77;4.75;;;30.70;44.50;;;;;;6128851;29;20035;-74
2023/07/12 01:39:03;;;;;;;15.02;5.00;;;30.30;44.50;;;;;;6122246;29;20043;-74
2023/07/12 01:42:04;;;;;;;12.32;4.82;;;30.20;44.80;;;;;;6136739;29;20035;-74
2023/07/12 01:45:07;;;;;;;18.35;4.60;;;30.20;44.90;;;;;;6145798;29;20367;-73
2023/07/12 01:48:08;;;;;;;17.13;4.68;;;30.30;44.80;;;;;;6127590;29;20035;-74
2023/07/12 01:51:10;;;;;;;16.23;4.00;;;30.30;44.70;;;;;;6106409;29;20463;-74
2023/07/12 01:54:11;;;;;;;16.40;4.20;;;30.20;44.70;;;;;;6122603;29;20462;-74
2023/07/12 01:57:13;;;;;;;20.17;4.43;;;30.10;44.90;;;;;;6138359;28;20036;-74
2023/07/12 02:00:14;;;;;;;9.95;3.88;;;30.10;45.10;;;;;;6122277;29;20136;-74
2023/07/12 02:03:20;;;;;;;15.90;4.47;;;30.10;45.00;;;;;;6122390;29;20444;-74
2023/07/12 02:06:22;;;;;;;10.07;3.67;;;30.10;44.90;;;;;;6106946;29;20429;-75
2023/07/12 02:09:40;;;;;;;16.15;3.97;;;30.10;44.90;;;;;;6122282;29;20027;-75
2023/07/12 02:12:42;;;;;;;22.90;4.13;;;30.00;44.90;;;;;;6122372;29;20078;-74
2023/07/12 02:15:44;;;;;;;13.90;3.80;;;30.20;44.70;;;;;;6106087;29;20055;-75
2023/07/12 02:18:45;;;;;;;11.90;4.05;;;30.30;44.40;;;;;;6121848;29;20512;-74
2023/07/12 02:21:46;;;;;;;10.95;3.20;;;30.30;44.40;;;;;;6121012;29;20409;-74
2023/07/12 02:24:47;;;;;;;12.45;3.78;;;30.30;44.20;;;;;;6105819;29;20131;-74
2023/07/12 02:27:49;;;;;;;13.98;3.33;;;30.40;44.00;;;;;;6122713;29;20526;-74
2023/07/12 02:30:51;;;;;;;7.05;3.47;;;30.60;43.70;;;;;;6121195;29;20091;-73
2023/07/12 02:33:52;;;;;;;15.68;4.90;;;30.70;43.50;;;;;;6104739;29;20039;-75
2023/07/12 02:36:52;;;;;;;19.70;5.05;;;30.60;43.50;;;;;;6105195;29;20134;-75
2023/07/12 02:39:53;;;;;;;23.50;5.10;;;30.60;44.20;;;;;;6121019;29;20043;-74
2023/07/12 02:42:55;;;;;;;28.95;4.78;;;30.50;43.80;;;;;;6120995;29;20035;-74
2023/07/12 02:45:56;;;;;;;12.18;3.97;;;30.40;44.00;;;;;;6134911;29;20051;-74
2023/07/12 02:48:57;;;;;;;18.40;4.03;;;30.40;44.30;;;;;;6144588;29;20488;-73
2023/07/12 02:51:58;;;;;;;23.38;4.70;;;30.40;44.10;;;;;;6139434;29;20145;-74
2023/07/12 02:55:00;;;;;;;12.95;3.80;;;30.50;44.10;;;;;;6120466;29;20090;-74
2023/07/12 02:58:02;;;;;;;12.35;4.30;;;30.60;43.90;;;;;;6120375;29;20048;-73
2023/07/12 03:01:03;;;;;;;21.45;4.55;;;30.50;43.90;;;;;;6120271;29;20036;-73
2023/07/12 03:04:05;;;;;;;14.13;3.83;;;30.60;44.00;;;;;;6117669;29;20408;-77
2023/07/12 03:07:06;;;;;;;24.88;4.75;;;30.50;44.00;;;;;;6106681;29;20076;-76
2023/07/12 03:10:08;;;;;;;18.80;4.25;;;30.50;44.30;;;;;;6096886;29;20445;-74
2023/07/12 03:13:09;;;;;;;19.70;4.47;;;30.40;44.80;;;;;;6087409;29;20126;-74
2023/07/12 03:16:10;;;;;;;17.88;4.03;;;30.30;45.50;;;;;;6119876;29;20380;-74
2023/07/12 03:19:13;;;;;;;10.10;3.70;;;30.20;46.50;;;;;;6120347;29;20043;-73
2023/07/12 03:22:15;;;;;;;18.52;4.63;;;30.00;47.40;;;;;;6121241;29;20079;-76
2023/07/12 03:25:16;;;;;;;10.05;4.18;;;29.80;48.00;;;;;;6120287;29;20055;-74
2023/07/12 03:28:18;;;;;;;12.02;3.20;;;29.60;48.40;;;;;;6120411;29;20227;-73
2023/07/12 03:31:19;;;;;;;18.73;4.22;;;29.50;48.80;;;;;;6119871;29;20047;-74
2023/07/12 03:34:20;;;;;;;14.60;4.20;;;29.40;49.30;;;;;;6118792;29;20095;-73
2023/07/12 03:37:21;;;;;;;14.85;3.63;;;29.30;49.40;;;;;;6119686;29;20035;-73
2023/07/12 03:40:22;;;;;;;14.55;3.70;;;29.10;49.40;;;;;;6136413;29;20102;-74
2023/07/12 03:43:24;;;;;;;11.93;3.85;;;29.10;49.60;;;;;;6122785;29;20142;-76
2023/07/12 03:46:25;;;;;;;24.65;4.35;;;29.10;49.70;;;;;;6119343;29;20074;-75
2023/07/12 03:49:26;;;;;;;12.63;3.90;;;29.20;49.80;;;;;;6118891;29;20050;-74
2023/07/12 03:52:27;;;;;;;15.80;3.95;;;29.20;49.60;;;;;;6118863;29;20028;-75
2023/07/12 03:55:29;;;;;;;21.30;4.43;;;29.30;49.30;;;;;;6134508;28;20035;-76
2023/07/12 03:58:35;;;;;;;18.60;5.00;;;29.30;49.10;;;;;;6118725;29;20059;-74
2023/07/12 04:01:36;;;;;;;16.98;4.45;;;29.30;49.00;;;;;;6118612;29;20397;-75
2023/07/12 04:04:37;;;;;;;20.50;5.03;;;29.30;49.40;;;;;;6134573;29;20155;-73
2023/07/12 04:07:38;;;;;;;25.85;4.65;;;29.30;49.70;;;;;;6134749;29;20540;-74
2023/07/12 04:10:39;;;;;;;20.23;4.13;;;29.30;49.60;;;;;;6118104;29;20492;-74
2023/07/12 04:13:40;;;;;;;17.20;3.95;;;29.50;49.60;;;;;;6102285;29;20056;-73
2023/07/12 04:16:41;;;;;;;22.25;4.72;;;29.50;49.60;;;;;;6119595;29;20036;-73
2023/07/12 04:19:42;;;;;;;11.88;3.75;;;29.40;49.70;;;;;;6134964;29;20039;-76
2023/07/12 04:22:43;;;;;;;16.42;4.38;;;29.30;50.00;;;;;;6129446;28;20047;-75
2023/07/12 04:25:44;;;;;;;22.95;4.30;;;29.30;50.10;;;;;;6118509;29;20067;-74
2023/07/12 04:28:49;;;;;;;16.75;3.83;;;29.20;50.20;;;;;;6119458;28;20046;-77
2023/07/12 04:31:50;;;;;;;22.95;4.35;;;29.20;50.30;;;;;;6117988;29;20126;-74
2023/07/12 04:34:51;;;;;;;13.70;3.70;;;29.20;50.40;;;;;;6101648;29;20830;-74
2023/07/12 04:37:52;;;;;;;9.95;3.30;;;29.10;50.50;;;;;;6117925;29;20038;-74
2023/07/12 04:40:54;;;;;;;14.48;4.00;;;29.10;50.40;;;;;;6101664;29;20038;-77
2023/07/12 04:43:55;;;;;;;11.65;3.38;;;29.00;50.60;;;;;;6101433;29;20123;-76
2023/07/12 04:46:57;;;;;;;12.43;4.13;;;28.90;50.80;;;;;;6064594;29;1747368;-74
2023/07/12 04:49:58;;;;;;;22.55;4.57;;;28.70;51.20;;;;;;6108428;29;20102;-75
2023/07/12 04:52:59;;;;;;;23.13;3.50;;;28.60;51.60;;;;;;6112467;29;20055;-76
2023/07/12 04:56:01;;;;;;;30.33;4.88;;;28.50;51.70;;;;;;6100801;29;20028;-75
2023/07/12 04:59:02;;;;;;;21.25;4.47;;;28.50;51.60;;;;;;6100798;29;20067;-75
2023/07/12 05:02:03;;;;;;;20.48;3.70;;;28.50;51.40;;;;;;6100354;29;20040;-75
2023/07/12 05:05:05;;;;;;;12.95;3.65;;;28.50;51.60;;;;;;6101180;29;20047;-74
2023/07/12 05:08:08;;;;;;;13.45;3.90;;;28.80;51.40;;;;;;6103134;29;20032;-75
2023/07/12 05:11:11;;;;;;;11.57;3.28;;;28.90;50.70;;;;;;6129202;28;20035;-76
2023/07/12 05:14:14;;;;;;;19.33;3.92;;;29.00;50.40;;;;;;6124614;29;20020;-74
2023/07/12 05:17:15;;;;;;;16.95;4.45;;;29.00;50.30;;;;;;6107038;29;20032;-75
2023/07/12 05:20:16;;;;;;;14.57;4.07;;;29.00;50.40;;;;;;6123194;29;20040;-73
2023/07/12 05:23:18;;;;;;;18.40;4.43;;;29.10;50.60;;;;;;6123151;29;20058;-77
2023/07/12 05:26:27;;;;;;;17.23;3.85;;;29.20;50.60;;;;;;6123263;28;20040;-72
2023/07/12 05:29:28;;;;;;;20.77;4.20;;;29.30;50.50;;;;;;6121129;29;20024;-74
2023/07/12 05:32:29;;;;;;;16.42;4.03;;;29.30;50.30;;;;;;6121090;29;20039;-74
2023/07/12 05:35:30;;;;;;;25.92;4.43;;;29.30;50.40;;;;;;6121609;29;20167;-73
2023/07/12 05:38:31;;;;;;;11.55;4.05;;;29.10;50.50;;;;;;6121764;29;20039;-74
2023/07/12 05:41:33;;;;;;;20.88;4.15;;;29.00;50.80;;;;;;6123671;29;20023;-73
2023/07/12 05:44:34;;;;;;;16.70;3.90;;;28.90;51.10;;;;;;6122784;29;20050;-75
2023/07/12 05:47:36;;;;;;;21.25;4.32;;;28.90;51.40;;;;;;6138878;29;20435;-75
2023/07/12 05:50:38;;;;;;;15.02;4.40;;;28.80;51.40;;;;;;6124549;29;20024;-74
2023/07/12 05:53:39;;;;;;;10.98;3.65;;;28.80;51.30;;;;;;6132634;29;20059;-75
2023/07/12 05:56:41;;;;;;;20.20;4.00;;;28.80;51.20;;;;;;6137778;28;20084;-74
2023/07/12 05:59:44;;;;;;;13.82;4.68;;;29.00;51.10;;;;;;6123991;29;20035;-74
2023/07/12 06:02:46;;;;;;;16.23;4.03;;;29.00;51.00;;;;;;6122894;29;20508;-74
2023/07/12 06:05:47;;;;;;;12.98;3.78;;;29.10;50.80;;;;;;6122572;29;20063;-76
2023/07/12 06:08:50;;;;;;;13.98;4.22;;;29.20;50.70;;;;;;6123286;29;20039;-75
2023/07/12 06:11:54;;;;;;;19.05;4.07;;;29.20;50.40;;;;;;6138660;28;20043;-76
2023/07/12 06:14:56;;;;;;;15.18;4.30;;;29.30;50.20;;;;;;6146996;28;20484;-76
2023/07/12 06:17:57;;;;;;;12.52;3.72;;;29.30;50.10;;;;;;6130088;29;20561;-75
2023/07/12 06:21:06;;;;;;;21.20;4.22;;;29.40;50.00;;;;;;6130266;29;20459;-74
2023/07/12 06:24:08;;;;;;;15.40;4.30;;;29.50;49.80;;;;;;6123567;28;20342;-75
2023/07/12 06:27:08;;;;;;;25.77;4.65;;;29.50;49.60;;;;;;6123326;29;20062;-76
2023/07/12 06:30:11;;;;;;;22.75;4.40;;;29.60;49.40;;;;;;6106268;29;20051;-74
2023/07/12 06:33:12;;;;;;;13.73;3.60;;;29.70;49.20;;;;;;6106398;29;20084;-75
2023/07/12 06:36:13;;;;;;;14.65;4.05;;;29.70;48.90;;;;;;6122312;29;20047;-75
2023/07/12 06:39:16;;;;;;;24.67;4.25;;;29.80;48.50;;;;;;6121071;29;20082;-75
2023/07/12 06:42:17;;;;;;;17.05;3.53;;;29.80;48.30;;;;;;6122112;29;20058;-74
2023/07/12 06:45:20;;;;;;;14.15;3.83;;;29.80;48.40;;;;;;6106147;29;20063;-75
2023/07/12 06:48:23;;;;;;;13.40;3.20;;;29.80;48.20;;;;;;6124247;29;20163;-76
2023/07/12 06:51:23;;;;;;;13.90;3.38;;;29.80;47.90;;;;;;6127081;29;20035;-74
2023/07/12 06:54:26;;;;;;;19.40;3.85;;;29.80;47.70;;;;;;6124044;29;20040;-75
2023/07/12 06:57:27;;;;;;;19.77;3.03;;;29.90;47.80;;;;;;6121173;29;20156;-73
2023/07/12 07:00:28;;;;;;;16.38;3.78;;;29.90;47.80;;;;;;6123549;29;20020;-74
2023/07/12 07:03:30;;;;;;;23.00;4.03;;;30.00;47.40;;;;;;6120980;29;20449;-76
2023/07/12 07:06:31;;;;;;;12.38;3.58;;;30.00;47.20;;;;;;6105698;29;20551;-75
2023/07/12 07:09:38;;;;;;;14.35;3.80;;;30.20;47.20;;;;;;6120967;29;20131;-74
2023/07/12 07:12:39;;;;;;;18.58;4.00;;;30.30;47.00;;;;;;6120088;29;20051;-74
2023/07/12 07:15:41;;;;;;;18.73;3.25;;;30.40;46.70;;;;;;6120815;29;20115;-74
2023/07/12 07:18:42;;;;;;;21.60;3.63;;;30.60;46.40;;;;;;6104919;29;20126;-75
2023/07/12 07:21:46;;;;;;;21.70;4.07;;;30.60;46.20;;;;;;6104351;29;20047;-76
2023/07/12 07:24:47;;;;;;;18.52;3.95;;;30.60;46.30;;;;;;6105255;29;20174;-75
2023/07/12 07:27:48;;;;;;;22.52;3.90;;;30.80;46.20;;;;;;6136778;28;20083;-74
2023/07/12 07:30:56;;;;;;;21.83;3.70;;;30.80;45.90;;;;;;6122902;29;20082;-74
2023/07/12 07:33:57;;;;;;;33.03;4.18;;;30.90;45.90;;;;;;6105434;29;20170;-74
2023/07/12 07:36:59;;;;;;;19.35;3.10;;;31.00;45.50;;;;;;6121533;29;20067;-75
2023/07/12 07:40:00;;;;;;;13.02;3.08;;;31.10;45.20;;;;;;6105081;29;20550;-75
2023/07/12 07:43:01;;;;;;;13.73;3.00;;;31.30;44.90;;;;;;6121195;29;20095;-75
2023/07/12 07:46:03;;;;;;;12.27;3.35;;;31.30;44.70;;;;;;6104910;29;20047;-75
2023/07/12 07:49:04;;;;;;;21.27;3.72;;;31.40;44.50;;;;;;6120081;29;20480;-75
2023/07/12 07:52:05;;;;;;;16.20;3.33;;;31.50;44.30;;;;;;6123041;29;20034;-74
2023/07/12 07:55:07;;;;;;;12.80;3.20;;;31.50;44.20;;;;;;6120684;29;20756;-75
2023/07/12 07:58:09;;;;;;;17.15;3.72;;;31.50;44.10;;;;;;6120987;29;20042;-75
2023/07/12 08:01:10;;;;;;;14.57;3.45;;;31.70;44.00;;;;;;6121535;29;20122;-74
2023/07/12 08:04:11;;;;;;;23.52;4.20;;;31.80;43.80;;;;;;6104827;29;20407;-75
2023/07/12 08:07:13;;;;;;;15.73;3.45;;;31.90;43.60;;;;;;6122081;29;20480;-74
2023/07/12 08:10:17;;;;;;;13.90;3.53;;;32.00;43.40;;;;;;6122417;29;20050;-76
2023/07/12 08:13:19;;;;;;;13.32;3.55;;;32.00;43.20;;;;;;6122322;29;20550;-74
2023/07/12 08:16:22;;;;;;;19.52;3.38;;;32.20;43.70;;;;;;6142093;29;20483;-76
2023/07/12 08:19:24;;;;;;;16.73;3.40;;;32.20;42.80;;;;;;6148028;28;20027;-76
2023/07/12 08:22:25;;;;;;;10.23;3.17;;;32.20;42.80;;;;;;6130434;29;20059;-74
2023/07/12 08:25:27;;;;;;;15.75;3.28;;;32.20;42.70;;;;;;6143440;28;20035;-75
2023/07/12 08:28:30;;;;;;;16.65;3.63;;;32.20;42.70;;;;;;6127392;28;20028;-75
2023/07/12 08:31:32;;;;;;;23.00;3.97;;;32.20;42.70;;;;;;6104159;29;20031;-75
2023/07/12 08:34:34;;;;;;;24.67;3.47;;;32.30;42.60;;;;;;6103512;29;20028;-76
2023/07/12 08:37:35;;;;;;;15.95;2.92;;;32.30;42.50;;;;;;6122759;29;20091;-75
2023/07/12 08:40:43;;;;;;;8.02;2.72;;;32.40;42.40;;;;;;6119860;29;20038;-76
2023/07/12 08:43:46;;;;;;;15.25;3.17;;;32.50;42.20;;;;;;6111209;29;20043;-75
2023/07/12 08:46:56;;;;;;;15.30;3.00;;;32.70;41.90;;;;;;6111365;29;20036;-74
2023/07/12 08:49:57;;;;;;;24.35;3.67;;;33.00;40.80;;;;;;6096319;29;20040;-74
2023/07/12 08:53:04;;;;;;;9.95;3.30;;;33.00;41.20;;;;;;6096575;29;20472;-76
2023/07/12 08:56:14;;;;;;;17.83;3.75;;;33.10;40.90;;;;;;6096784;29;20186;-76
2023/07/12 08:59:17;;;;;;;11.05;3.05;;;33.20;40.70;;;;;;6119971;29;20023;-75
2023/07/12 09:02:24;;;;;;;17.02;3.30;;;33.30;40.50;;;;;;6127339;29;20491;-76
2023/07/12 09:05:25;;;;;;;14.85;3.08;;;33.30;40.40;;;;;;6144051;28;20118;-75
2023/07/12 09:08:37;;;;;;;20.98;3.58;;;33.40;40.20;;;;;;6143456;29;20051;-76
2023/07/12 09:11:39;;;;;;;19.80;3.30;;;33.50;40.10;;;;;;6143417;29;20425;-74
2023/07/12 09:14:40;;;;;;;23.08;3.47;;;33.60;39.90;;;;;;6144530;28;20124;-74
2023/07/12 09:17:44;;;;;;;15.23;3.08;;;33.60;40.00;;;;;;6142518;28;20133;-76
2023/07/12 09:20:50;;;;;;;15.70;3.42;;;33.60;39.80;;;;;;6142949;28;20031;-74
2023/07/12 09:23:55;;;;;;;20.67;3.70;;;33.60;39.90;;;;;;6106595;29;20138;-76
2023/07/12 09:27:11;;;;;;;14.98;3.80;;;33.60;39.60;;;;;;6108582;29;20031;-75
2023/07/12 09:30:22;;;;;;;18.35;3.17;;;33.60;39.30;;;;;;6143274;28;20031;-74
2023/07/12 09:33:27;;;;;;;13.60;3.58;;;33.60;39.30;;;;;;6131499;29;20043;-75
2023/07/12 09:36:29;;;;;;;19.83;3.50;;;33.70;39.30;;;;;;6149294;28;20059;-74
2023/07/12 09:39:30;;;;;;;13.57;3.55;;;33.60;39.20;;;;;;6147247;28;20039;-75
2023/07/12 09:42:31;;;;;;;27.95;4.82;;;33.60;39.00;;;;;;6146621;28;20035;-73
2023/07/12 09:45:35;;;;;;;13.13;3.50;;;33.70;39.00;;;;;;6148202;28;20086;-76
2023/07/12 09:48:44;;;;;;;18.33;2.83;;;33.80;38.90;;;;;;6146852;28;20039;-75
2023/07/12 09:52:08;;;;;;;13.90;3.28;;;33.80;38.70;;;;;;6143248;28;20129;-74
2023/07/12 09:55:29;;;;;;;24.92;4.05;;;33.80;38.60;;;;;;6107919;29;20039;-76
2023/07/12 09:58:45;;;;;;;18.27;3.88;;;33.80;38.60;;;;;;6147750;29;20035;-76
2023/07/12 10:02:00;;;;;;;13.30;3.17;;;33.90;38.50;;;;;;6147497;28;20043;-73
2023/07/12 10:05:12;;;;;;;15.50;3.72;;;33.90;38.40;;;;;;6146616;28;20428;-75
2023/07/12 10:08:16;;;;;;;15.45;3.13;;;34.00;38.40;;;;;;6131316;29;20464;-73
2023/07/12 10:11:27;;;;;;;17.02;3.60;;;34.00;38.20;;;;;;6139867;29;20031;-75
2023/07/12 10:14:34;;;;;;;19.38;3.80;;;34.10;38.20;;;;;;6123491;29;20039;-75
2023/07/12 10:17:42;;;;;;;17.67;4.00;;;34.10;38.20;;;;;;6124722;29;20079;-73
2023/07/12 10:20:43;;;;;;;14.73;3.58;;;34.10;38.20;;;;;;6123288;29;20630;-74
2023/07/12 10:24:06;;;;;;;17.58;4.05;;;34.20;38.30;;;;;;6122435;29;20481;-75
2023/07/12 10:27:23;;;;;;;17.58;3.50;;;34.20;38.20;;;;;;6127834;29;20426;-76
2023/07/12 10:30:26;;;;;;;18.25;4.32;;;34.30;37.90;;;;;;6122396;29;20036;-74
2023/07/12 10:33:34;;;;;;;14.40;3.90;;;34.40;37.60;;;;;;6105684;29;20034;-75
2023/07/12 10:36:38;;;;;;;26.65;4.03;;;34.50;37.40;;;;;;6121325;29;20057;-77
2023/07/12 10:39:40;;;;;;;9.93;3.20;;;34.70;37.30;;;;;;6121684;29;20044;-75
2023/07/12 10:42:50;;;;;;;11.20;3.90;;;34.80;37.10;;;;;;6103655;29;20123;-74
2023/07/12 10:46:03;;;;;;;24.92;3.28;;;34.80;37.00;;;;;;6097640;29;20515;-75
2023/07/12 10:49:17;;;;;;;14.65;3.60;;;34.90;37.10;;;;;;6113676;29;20059;-74
2023/07/12 10:52:28;;;;;;;23.20;3.78;;;35.10;36.80;;;;;;6105567;29;20030;-75
2023/07/12 10:55:36;;;;;;;19.05;3.65;;;35.30;36.50;;;;;;6120798;29;20046;-75
2023/07/12 10:58:46;;;;;;;19.95;4.05;;;35.50;36.30;;;;;;6105581;29;20050;-76
2023/07/12 11:01:51;;;;;;;10.10;3.08;;;35.70;35.80;;;;;;6120429;29;20123;-73
2023/07/12 11:04:52;;;;;;;20.27;4.13;;;35.90;35.40;;;;;;6120697;29;20039;-74
2023/07/12 11:07:57;;;;;;;25.15;3.55;;;36.20;35.00;;;;;;6120646;29;20040;-76
2023/07/12 11:11:21;;;;;;;19.05;3.80;;;36.30;34.50;;;;;;6104510;29;20587;-75
2023/07/12 11:14:37;;;;;;;17.27;3.47;;;36.60;34.40;;;;;;6091412;29;20364;-74
2023/07/12 11:17:58;;;;;;;17.80;3.10;;;37.20;33.50;;;;;;6122035;29;20042;-75
2023/07/12 11:21:05;;;;;;;18.23;4.13;;;37.70;32.70;;;;;;6104341;29;20134;-75
2023/07/12 11:24:25;;;;;;;21.13;4.03;;;38.20;32.00;;;;;;6119809;29;20069;-76
2023/07/12 11:27:53;;;;;;;17.00;3.90;;;38.60;31.40;;;;;;6119407;29;20569;-73
2023/07/12 11:31:15;;;;;;;16.42;3.45;;;38.90;30.90;;;;;;6120128;29;20039;-75
2023/07/12 11:34:22;;;;;;;15.27;3.63;;;39.10;30.60;;;;;;6122215;29;20059;-75
2023/07/12 11:37:31;;;;;;;17.97;3.67;;;39.00;30.70;;;;;;6120812;28;20083;-74
2023/07/12 11:40:35;;;;;;;23.13;4.07;;;38.70;31.00;;;;;;6104806;29;20031;-74
2023/07/12 11:43:37;;;;;;;14.40;3.63;;;38.90;31.10;;;;;;6120258;29;20555;-73
2023/07/12 11:46:42;;;;;;;16.15;3.28;;;39.20;30.70;;;;;;6120553;29;20087;-73
2023/07/12 11:49:45;;;;;;;27.38;3.72;;;39.50;30.30;;;;;;6119690;29;20543;-75
2023/07/12 11:52:47;;;;;;;17.70;3.70;;;39.60;30.10;;;;;;6120066;29;20063;-75
2023/07/12 11:55:49;;;;;;;17.50;3.20;;;39.70;30.00;;;;;;6135162;28;20031;-76
2023/07/12 11:58:50;;;;;;;25.67;3.75;;;39.60;29.90;;;;;;6103411;29;20046;-75
2023/07/12 12:01:53;;;;;;;12.23;2.95;;;39.50;30.00;;;;;;6119420;29;20039;-75
2023/07/12 12:04:59;;;;;;;19.55;3.63;;;39.40;30.00;;;;;;6121215;29;20511;-73
2023/07/12 12:08:03;;;;;;;17.95;3.75;;;39.40;30.00;;;;;;6102776;29;20047;-74
2023/07/12 12:11:04;;;;;;;15.48;3.65;;;39.30;30.90;;;;;;6121409;29;20107;-76
2023/07/12 12:14:18;;;;;;;18.65;4.53;;;39.20;30.50;;;;;;6118884;29;20087;-73
2023/07/12 12:17:25;;;;;;;13.95;3.70;;;39.10;30.70;;;;;;6120094;29;20028;-74
2023/07/12 12:20:32;;;;;;;25.38;3.65;;;39.10;30.80;;;;;;6122991;29;20039;-73
2023/07/12 12:23:41;;;;;;;18.90;3.53;;;39.10;30.80;;;;;;6119936;29;20024;-75
2023/07/12 12:26:45;;;;;;;18.40;3.88;;;39.10;30.90;;;;;;6103362;29;20110;-76
2023/07/12 12:29:46;;;;;;;12.50;3.53;;;38.80;31.50;;;;;;6103073;29;20736;-75
2023/07/12 12:33:04;;;;;;;13.23;4.10;;;38.60;32.00;;;;;;6118821;29;20396;-73
2023/07/12 12:36:16;;;;;;;15.18;3.85;;;38.30;32.40;;;;;;6102878;29;20031;-74
2023/07/12 12:39:21;;;;;;;23.13;4.97;;;38.00;32.70;;;;;;6120715;29;20127;-75
2023/07/12 12:42:25;;;;;;;13.32;3.53;;;37.70;33.50;;;;;;6119989;29;20043;-75
2023/07/12 12:45:33;;;;;;;13.90;3.42;;;37.50;33.90;;;;;;6132133;29;20035;-75
2023/07/12 12:48:33;;;;;;;8.45;3.78;;;37.50;34.40;;;;;;6142440;29;20395;-74
2023/07/12 12:51:35;;;;;;;10.25;3.53;;;37.50;35.00;;;;;;6140127;29;20027;-74
2023/07/12 12:54:36;;;;;;;12.20;3.83;;;37.40;35.30;;;;;;6103220;29;20074;-74
2023/07/12 12:57:38;;;;;;;13.68;4.22;;;37.10;35.60;;;;;;6119013;29;20047;-73
2023/07/12 13:00:41;;;;;;;9.40;3.60;;;37.20;35.90;;;;;;6121817;29;20067;-74
2023/07/12 13:03:42;;;;;;;15.35;3.85;;;37.00;36.40;;;;;;6121013;29;20091;-75
2023/07/12 13:06:43;;;;;;;14.75;3.47;;;36.90;36.90;;;;;;6106934;29;20079;-75
2023/07/12 13:09:44;;;;;;;12.88;3.55;;;36.90;36.90;;;;;;6124547;29;20483;-74
2023/07/12 13:12:45;;;;;;;11.93;3.42;;;36.80;37.00;;;;;;6139746;29;20126;-75
2023/07/12 13:15:47;;;;;;;14.90;3.55;;;36.80;37.60;;;;;;6138851;29;20063;-75
2023/07/12 13:18:48;;;;;;;7.18;3.20;;;36.70;37.10;;;;;;6123114;29;20039;-75
2023/07/12 13:21:50;;;;;;;7.38;2.60;;;36.70;37.20;;;;;;6122970;29;20613;-77
2023/07/12 13:24:53;;;;;;;5.88;3.08;;;36.50;37.30;;;;;;6123452;29;20571;-75
2023/07/12 13:27:55;;;;;;;12.27;3.75;;;36.40;37.60;;;;;;6108424;29;20035;-75
2023/07/12 13:30:56;;;;;;;12.93;3.20;;;36.30;37.90;;;;;;6123806;29;20059;-76
2023/07/12 13:33:58;;;;;;;9.93;3.00;;;36.30;38.00;;;;;;6122475;29;20038;-75
2023/07/12 13:36:59;;;;;;;10.90;3.42;;;36.10;38.40;;;;;;6122336;29;20032;-73
2023/07/12 13:39:59;;;;;;;13.18;3.53;;;35.90;38.70;;;;;;6121517;29;20489;-75
2023/07/12 13:43:01;;;;;;;12.05;3.10;;;35.70;38.80;;;;;;6119089;29;20035;-74
2023/07/12 13:46:02;;;;;;;12.65;3.25;;;35.80;38.90;;;;;;6106362;29;20038;-74
2023/07/12 13:49:03;;;;;;;10.77;2.85;;;36.00;38.70;;;;;;6124594;29;20031;-74
2023/07/12 13:52:05;;;;;;;14.75;3.63;;;36.10;38.40;;;;;;6106528;29;20436;-75
2023/07/12 13:55:06;;;;;;;13.98;3.45;;;36.10;38.40;;;;;;6123447;29;20042;-74
2023/07/12 13:58:07;;;;;;;7.35;3.28;;;36.00;38.50;;;;;;6124748;29;20084;-75
2023/07/12 14:01:12;;;;;;;7.95;2.67;;;35.70;38.80;;;;;;6122689;29;20349;-75
2023/07/12 14:04:15;;;;;;;8.75;3.55;;;35.50;39.20;;;;;;6106900;29;20572;-74
2023/07/12 14:07:18;;;;;;;11.30;3.28;;;35.30;39.50;;;;;;6140837;28;20114;-76
2023/07/12 14:10:21;;;;;;;6.55;3.00;;;35.10;39.90;;;;;;6125097;29;20062;-74
2023/07/12 14:13:22;;;;;;;12.90;3.75;;;34.90;40.30;;;;;;6137956;28;20036;-75
2023/07/12 14:16:25;;;;;;;5.50;2.78;;;34.80;40.60;;;;;;6106037;29;20480;-75
2023/07/12 14:19:26;;;;;;;11.02;3.35;;;34.70;40.60;;;;;;6120770;29;20106;-75
2023/07/12 14:22:30;;;;;;;17.48;3.42;;;34.70;40.70;;;;;;6121429;29;20062;-74
2023/07/12 14:25:33;;;;;;;11.40;3.20;;;34.60;40.90;;;;;;6121656;29;20523;-75
2023/07/12 14:28:34;;;;;;;11.38;3.22;;;34.60;40.90;;;;;;6121688;29;20028;-75
2023/07/12 14:31:36;;;;;;;13.00;3.67;;;34.50;40.80;;;;;;6121535;29;20046;-76
2023/07/12 14:34:37;;;;;;;10.85;3.30;;;34.70;40.70;;;;;;6121779;29;20043;-76
2023/07/12 14:37:39;;;;;;;10.73;3.45;;;34.70;40.70;;;;;;6132352;29;20122;-75
2023/07/12 14:40:41;;;;;;;18.13;3.88;;;34.50;40.90;;;;;;6126511;29;20171;-76
2023/07/12 14:43:43;;;;;;;15.70;3.88;;;34.30;41.10;;;;;;6120809;29;20031;-75
2023/07/12 14:46:45;;;;;;;6.78;3.10;;;34.20;41.60;;;;;;6105305;29;20139;-74
2023/07/12 14:49:46;;;;;;;14.38;3.35;;;34.00;41.80;;;;;;6123112;29;20031;-73
2023/07/12 14:52:47;;;;;;;5.85;3.05;;;34.00;41.90;;;;;;6121317;29;20095;-75
2023/07/12 14:55:49;;;;;;;13.48;3.30;;;34.10;41.80;;;;;;6121208;29;20047;-73
2023/07/12 14:58:50;;;;;;;11.63;3.03;;;34.20;41.50;;;;;;6104994;29;20035;-74
2023/07/12 15:01:50;;;;;;;15.38;3.35;;;34.30;41.40;;;;;;6120488;29;20043;-74
2023/07/12 15:04:53;;;;;;;9.70;3.33;;;34.30;41.30;;;;;;6120665;29;20031;-74
2023/07/12 15:07:55;;;;;;;7.88;2.88;;;34.40;41.10;;;;;;6137009;29;20046;-76
2023/07/12 15:10:58;;;;;;;8.05;3.20;;;34.30;41.30;;;;;;6120213;29;20024;-75
2023/07/12 15:13:59;;;;;;;7.07;3.25;;;33.90;41.60;;;;;;6123876;29;20028;-75
2023/07/12 15:17:01;;;;;;;7.70;3.20;;;33.70;42.10;;;;;;6129299;29;20042;-74
2023/07/12 15:20:04;;;;;;;7.50;2.90;;;33.40;42.70;;;;;;6125484;29;20055;-74
2023/07/12 15:23:15;;;;;;;9.27;2.90;;;33.10;43.10;;;;;;6123063;29;20294;-74
2023/07/12 15:26:17;;;;;;;5.35;3.25;;;32.90;43.50;;;;;;6125672;29;20126;-73
2023/07/12 15:29:18;;;;;;;15.23;3.05;;;32.80;43.90;;;;;;6105870;29;20381;-73
2023/07/12 15:32:20;;;;;;;6.22;3.00;;;32.60;44.10;;;;;;6103807;29;20027;-74
2023/07/12 15:35:29;;;;;;;10.80;3.30;;;32.60;44.10;;;;;;6119923;29;20054;-73
2023/07/12 15:38:31;;;;;;;8.70;3.05;;;32.50;44.10;;;;;;6120636;29;20115;-75
2023/07/12 15:41:32;;;;;;;10.48;3.72;;;32.40;44.10;;;;;;6120068;29;20043;-75
2023/07/12 15:44:33;;;;;;;7.45;3.10;;;32.30;44.00;;;;;;6119675;29;20091;-75